Time;durP1;ratioP1;P1;durP2;ratioP2;P2;SDS_P1;SDS_P2;PMS_P1;PMS_P2;Temp;Humidity;BMP_temperature;BMP_pressure;BME280_temperature;BME280_humidity;BME280_pressure;Samples;Min_cycle;Max_cycle;Signal;HPM_P1;HPM_P2
2023/03/13 00:00:54;;;;;;;;;7.25;7.25;;;;;12.18;68.79;99332.91;5090098;27;45523;-73
2023/03/13 00:03:19;;;;;;;;;9.25;9.25;;;;;12.19;68.50;99329.34;5094851;27;45561;-73
2023/03/13 00:05:45;;;;;;;;;11.75;10.00;;;;;12.21;68.38;99332.78;5095122;27;45435;-73
2023/03/13 00:08:10;;;;;;;;;9.50;8.50;;;;;12.22;68.59;99329.22;5096517;27;45518;-73
2023/03/13 00:10:37;;;;;;;;;8.00;8.00;;;;;12.23;68.37;99328.25;5094947;27;45491;-73
2023/03/13 00:13:03;;;;;;;;;8.50;8.25;;;;;12.24;68.35;99329.97;5102349;27;47063;-73
2023/03/13 00:15:29;;;;;;;;;7.00;7.00;;;;;12.25;68.40;99320.28;5089574;27;45681;-73
2023/03/13 00:17:54;;;;;;;;;8.25;6.25;;;;;12.27;68.23;99325.50;5102564;27;45430;-73
2023/03/13 00:20:20;;;;;;;;;8.75;7.00;;;;;12.27;68.05;99326.34;5093111;27;45448;-73
2023/03/13 00:22:45;;;;;;;;;9.50;8.00;;;;;12.29;68.37;99324.50;5092677;27;45420;-73
2023/03/13 00:25:11;;;;;;;;;8.75;8.75;;;;;12.30;68.16;99317.44;5094153;27;45412;-74
2023/03/13 00:27:36;;;;;;;;;8.00;7.00;;;;;12.30;68.13;99325.38;5091470;27;45351;-74
2023/03/13 00:30:02;;;;;;;;;7.00;5.75;;;;;12.30;67.90;99320.06;5093434;27;45545;-73
2023/03/13 00:32:27;;;;;;;;;8.00;7.75;;;;;12.31;68.01;99320.00;5095768;27;45434;-73
2023/03/13 00:34:52;;;;;;;;;7.00;6.50;;;;;12.33;68.05;99315.53;5098543;27;45553;-73
2023/03/13 00:37:18;;;;;;;;;6.25;6.25;;;;;12.35;67.88;99318.09;5093563;27;45756;-73
2023/03/13 00:39:44;;;;;;;;;8.50;7.00;;;;;12.34;68.15;99322.53;5095642;27;45475;-73
2023/03/13 00:42:10;;;;;;;;;8.00;7.50;;;;;12.35;68.31;99321.59;5090099;27;45367;-73
2023/03/13 00:44:35;;;;;;;;;8.00;7.75;;;;;12.36;68.40;99311.88;5089220;27;45333;-73
2023/03/13 00:47:01;;;;;;;;;8.00;6.00;;;;;12.36;68.22;99311.88;5095716;27;45916;-73
2023/03/13 00:49:26;;;;;;;;;9.75;9.75;;;;;12.36;68.11;99310.09;5088474;27;45401;-74
2023/03/13 00:51:52;;;;;;;;;2.50;2.00;;;;;12.37;68.29;99310.97;5095770;27;46142;-74
2023/03/13 00:54:17;;;;;;;;;6.75;6.75;;;;;12.38;68.12;99310.03;5090946;27;45452;-73
2023/03/13 00:56:42;;;;;;;;;11.00;8.25;;;;;12.39;67.95;99306.47;5095675;27;45581;-73
2023/03/13 00:59:08;;;;;;;;;9.25;7.00;;;;;12.40;68.00;99308.19;5074773;27;45316;-73
2023/03/13 01:01:38;;;;;;;;;6.00;6.00;;;;;12.41;67.87;99313.38;5076955;27;46959;-74
2023/03/13 01:04:07;;;;;;;;;8.75;6.00;;;;;12.43;68.03;99321.25;5070980;28;45777;-74
2023/03/13 01:06:34;;;;;;;;;11.00;7.50;;;;;12.44;68.02;99317.69;5075979;27;45385;-73
2023/03/13 01:09:01;;;;;;;;;7.00;7.00;;;;;12.45;68.07;99311.47;5093742;27;45468;-73
2023/03/13 01:11:29;;;;;;;;;7.00;7.00;;;;;12.46;68.01;99299.97;5095126;27;45491;-73
2023/03/13 01:13:58;;;;;;;;;6.80;6.80;;;;;12.45;67.82;99301.75;5074458;27;45617;-73
2023/03/13 01:16:26;;;;;;;;;6.25;6.25;;;;;12.48;67.84;99300.75;5095173;27;45512;-73
2023/03/13 01:18:54;;;;;;;;;6.00;5.00;;;;;12.48;67.19;99304.25;5094302;27;45567;-73
2023/03/13 01:21:21;;;;;;;;;3.75;3.25;;;;;12.49;66.91;99299.81;5093972;27;45534;-73
2023/03/13 01:23:48;;;;;;;;;6.20;4.80;;;;;12.50;66.81;99299.75;5090854;27;45322;-73
2023/03/13 01:26:14;;;;;;;;;5.00;5.00;;;;;12.50;66.69;99290.97;5094696;27;45485;-74
2023/03/13 01:28:39;;;;;;;;;7.25;7.00;;;;;12.51;66.74;99295.34;5093018;27;45631;-74
2023/03/13 01:31:23;;;;;;;;;7.00;7.00;;;;;12.51;67.34;99306.78;5076720;27;46444;-73
2023/03/13 01:33:53;;;;;;;;;9.75;8.75;;;;;12.52;67.37;99308.50;5087965;27;45428;-73
2023/03/13 01:36:19;;;;;;;;;9.50;9.00;;;;;12.50;67.85;99304.19;5092397;27;45424;-73
2023/03/13 01:38:50;;;;;;;;;10.00;8.25;;;;;12.49;68.33;99305.13;5093985;27;45521;-73
2023/03/13 01:41:16;;;;;;;;;10.00;7.75;;;;;12.48;68.42;99300.75;5094838;27;45686;-73
2023/03/13 01:43:43;;;;;;;;;7.00;7.00;;;;;12.46;68.59;99292.03;5092858;27;45487;-73
2023/03/13 01:46:17;;;;;;;;;7.50;7.50;;;;;12.43;69.29;99285.09;5076653;27;45421;-73
2023/03/13 01:49:04;;;;;;;;;13.50;12.50;;;;;12.38;69.72;99283.59;5072645;28;45501;-74
2023/03/13 01:51:43;;;;;;;;;9.50;9.25;;;;;12.34;70.15;99290.81;5093752;27;46682;-74
2023/03/13 01:54:33;;;;;;;;;11.75;11.00;;;;;12.30;70.61;99286.56;5093626;27;45427;-73
2023/03/13 01:57:20;;;;;;;;;11.25;10.50;;;;;12.26;71.10;99284.97;5093267;27;45498;-73
2023/03/13 01:59:52;;;;;;;;;7.00;7.00;;;;;12.23;71.58;99290.44;5087712;27;45457;-73
2023/03/13 02:02:21;;;;;;;;;9.00;8.00;;;;;12.21;72.01;99294.91;5087535;27;45416;-73
2023/03/13 02:04:52;;;;;;;;;11.25;10.00;;;;;12.20;72.52;99286.13;5086902;27;45472;-74
2023/03/13 02:07:24;;;;;;;;;11.00;9.75;;;;;12.18;72.46;99289.75;5091580;27;45526;-73
2023/03/13 02:09:54;;;;;;;;;9.00;8.75;;;;;12.16;72.86;99288.97;5075439;27;45480;-73
2023/03/13 02:12:39;;;;;;;;;10.25;9.25;;;;;12.15;72.74;99282.81;5092314;27;46474;-73
2023/03/13 02:15:07;;;;;;;;;10.00;9.00;;;;;12.13;72.80;99279.38;5087244;27;45359;-73
2023/03/13 02:17:34;;;;;;;;;7.75;7.00;;;;;12.10;72.58;99278.66;5091375;27;45367;-73
2023/03/13 02:20:00;;;;;;;;;10.00;10.00;;;;;12.10;72.74;99273.38;5088694;27;45491;-73
2023/03/13 02:22:31;;;;;;;;;11.75;9.75;;;;;12.09;72.37;99276.94;5092040;27;45490;-73
2023/03/13 02:25:05;;;;;;;;;8.00;8.00;;;;;12.06;72.47;99285.03;5091856;27;45365;-73
2023/03/13 02:27:32;;;;;;;;;11.00;11.00;;;;;12.00;72.90;99278.22;5075223;27;45396;-73
2023/03/13 02:29:58;;;;;;;;;12.75;10.50;;;;;11.98;72.81;99287.13;5093129;27;45507;-73
2023/03/13 02:32:26;;;;;;;;;9.25;8.25;;;;;11.96;72.84;99273.13;5075905;27;47734;-73
2023/03/13 02:34:55;;;;;;;;;10.00;9.00;;;;;11.95;73.08;99281.97;5091895;27;45494;-73
2023/03/13 02:37:24;;;;;;;;;9.00;8.00;;;;;11.91;73.78;99272.44;5094100;27;45431;-73
2023/03/13 02:39:51;;;;;;;;;10.00;8.25;;;;;11.89;73.43;99267.25;5092525;27;45361;-73
2023/03/13 02:42:19;;;;;;;;;12.50;11.25;;;;;11.88;73.58;99254.97;5093688;27;46475;-73
2023/03/13 02:44:46;;;;;;;;;12.00;11.50;;;;;11.85;73.93;99255.97;5090494;27;45415;-73
2023/03/13 02:47:12;;;;;;;;;9.50;8.50;;;;;11.84;73.96;99256.88;5093699;27;45373;-73
2023/03/13 02:49:37;;;;;;;;;10.75;9.00;;;;;11.84;74.24;99248.97;5089305;27;45516;-73
2023/03/13 02:52:16;;;;;;;;;10.25;9.75;;;;;11.84;74.55;99258.66;5097161;27;46170;-73
2023/03/13 02:54:44;;;;;;;;;13.25;9.75;;;;;11.80;74.75;99242.06;5073174;27;45472;-73
2023/03/13 02:57:10;;;;;;;;;9.25;9.25;;;;;11.82;75.33;99242.88;5071580;28;45443;-73
2023/03/13 02:59:35;;;;;;;;;14.00;10.50;;;;;11.82;75.25;99239.38;5071679;28;45308;-73
2023/03/13 03:02:02;;;;;;;;;9.50;9.50;;;;;11.83;75.10;99238.44;5076666;27;45381;-73
2023/03/13 03:04:27;;;;;;;;;11.00;10.00;;;;;11.82;75.38;99236.72;5067961;28;45404;-73
2023/03/13 03:06:53;;;;;;;;;11.00;10.00;;;;;11.80;75.50;99236.78;5076610;27;45397;-73
2023/03/13 03:09:19;;;;;;;;;12.25;11.25;;;;;11.80;75.27;99242.06;5071807;28;45381;-72
2023/03/13 03:11:45;;;;;;;;;10.50;10.50;;;;;11.77;75.55;99241.34;5075484;28;46298;-73
2023/03/13 03:14:11;;;;;;;;;12.50;9.50;;;;;11.75;75.57;99233.44;5070740;28;45679;-73
2023/03/13 03:16:37;;;;;;;;;10.00;9.50;;;;;11.73;75.59;99232.66;5076497;28;45440;-73
2023/03/13 03:19:05;;;;;;;;;12.25;11.00;;;;;11.71;75.95;99231.03;5070446;28;45461;-73
2023/03/13 03:21:31;;;;;;;;;11.50;11.50;;;;;11.67;75.63;99226.78;5074421;28;47577;-73
2023/03/13 03:23:56;;;;;;;;;10.50;10.50;;;;;11.66;76.09;99243.56;5073340;27;45455;-72
2023/03/13 03:26:27;;;;;;;;;14.50;13.00;;;;;11.64;76.18;99245.41;5075323;28;45400;-73
2023/03/13 03:28:53;;;;;;;;;13.00;12.25;;;;;11.62;75.86;99242.81;5071617;27;45540;-72
2023/03/13 03:31:18;;;;;;;;;12.75;10.75;;;;;11.62;76.06;99245.47;5067729;27;45493;-73
2023/03/13 03:33:44;;;;;;;;;10.00;10.00;;;;;11.60;76.23;99249.09;5073785;28;45488;-73
2023/03/13 03:36:16;;;;;;;;;11.00;11.00;;;;;11.59;76.58;99244.72;5064334;28;45408;-74
2023/03/13 03:38:42;;;;;;;;;9.50;9.50;;;;;11.60;76.84;99246.44;5070189;28;45361;-74
2023/03/13 03:41:09;;;;;;;;;9.75;9.75;;;;;11.59;76.85;99240.31;5070153;28;46152;-74
2023/03/13 03:43:34;;;;;;;;;8.50;8.50;;;;;11.59;77.03;99242.09;5074204;28;45519;-74
2023/03/13 03:46:00;;;;;;;;;7.75;6.75;;;;;11.59;77.52;99236.81;5071016;28;45357;-74
2023/03/13 03:48:26;;;;;;;;;8.00;8.00;;;;;11.58;77.81;99235.09;5075629;27;45367;-74
2023/03/13 03:50:52;;;;;;;;;8.50;7.00;;;;;11.57;77.66;99242.16;5071279;28;45348;-73
2023/03/13 03:53:17;;;;;;;;;6.50;6.50;;;;;11.57;78.53;99241.28;5074095;28;45436;-74
2023/03/13 03:55:43;;;;;;;;;7.50;7.50;;;;;11.58;78.71;99237.72;5085687;27;45392;-74
2023/03/13 03:58:09;;;;;;;;;6.50;6.50;;;;;11.59;78.55;99245.59;5096585;27;45511;-74
2023/03/13 04:00:34;;;;;;;;;6.00;5.00;;;;;11.60;78.39;99235.88;5091944;27;46539;-74
2023/03/13 04:03:00;;;;;;;;;8.75;6.25;;;;;11.61;77.88;99227.03;5096303;27;45435;-74
2023/03/13 04:05:26;;;;;;;;;7.00;6.50;;;;;11.62;77.92;99231.41;5087890;27;45509;-74
2023/03/13 04:07:51;;;;;;;;;6.50;6.50;;;;;11.63;77.52;99233.97;5077783;27;45515;-74
2023/03/13 04:10:17;;;;;;;;;11.50;9.75;;;;;11.63;77.40;99233.97;5086972;27;45423;-74
2023/03/13 04:12:42;;;;;;;;;12.00;10.50;;;;;11.62;77.38;99234.03;5077643;27;45801;-74
2023/03/13 04:15:09;;;;;;;;;10.00;9.00;;;;;11.62;77.51;99228.75;5074634;27;45510;-74
2023/03/13 04:17:34;;;;;;;;;10.00;10.00;;;;;11.58;77.41;99230.66;5090856;27;45487;-74
2023/03/13 04:19:59;;;;;;;;;13.75;12.50;;;;;11.58;77.26;99229.81;5077075;27;47412;-74
2023/03/13 04:22:25;;;;;;;;;12.75;12.00;;;;;11.56;77.51;99232.53;5096124;27;45369;-74
2023/03/13 04:24:51;;;;;;;;;16.00;11.75;;;;;11.54;77.70;99234.38;5095509;27;45352;-74
2023/03/13 04:27:16;;;;;;;;;14.25;14.25;;;;;11.53;77.69;99227.38;5095698;27;45392;-73
2023/03/13 04:29:41;;;;;;;;;14.75;12.25;;;;;11.51;77.65;99221.31;5091602;27;46637;-74
2023/03/13 04:32:07;;;;;;;;;13.75;12.25;;;;;11.48;77.40;99213.50;5096090;27;45407;-74
2023/03/13 04:34:33;;;;;;;;;14.50;11.50;;;;;11.46;77.64;99202.16;5093969;27;45669;-73
2023/03/13 04:36:58;;;;;;;;;10.50;9.75;;;;;11.44;77.69;99215.41;5095524;27;45510;-74
2023/03/13 04:39:24;;;;;;;;;13.75;12.25;;;;;11.44;77.90;99217.19;5095410;27;45509;-74
2023/03/13 04:41:54;;;;;;;;;10.50;8.75;;;;;11.42;77.92;99219.91;5076804;27;45404;-74
2023/03/13 04:44:20;;;;;;;;;11.50;11.00;;;;;11.42;77.77;99216.41;5090605;27;45403;-74
2023/03/13 04:46:45;;;;;;;;;12.50;11.75;;;;;11.42;78.04;99219.91;5090167;27;45381;-74
2023/03/13 04:49:11;;;;;;;;;12.00;12.00;;;;;11.40;77.75;99210.31;5092310;27;45304;-74
2023/03/13 04:51:37;;;;;;;;;17.50;11.00;;;;;11.38;77.77;99215.69;5087811;27;45420;-74
2023/03/13 04:54:02;;;;;;;;;12.50;11.50;;;;;11.37;78.12;99219.25;5091600;27;45554;-73
2023/03/13 04:56:28;;;;;;;;;8.50;8.50;;;;;11.35;78.25;99207.91;5095072;27;45629;-74
2023/03/13 04:58:53;;;;;;;;;12.00;10.00;;;;;11.35;78.22;99212.31;5090892;27;45957;-74
2023/03/13 05:01:19;;;;;;;;;10.00;9.00;;;;;11.33;78.41;99208.88;5076926;27;45451;-74
2023/03/13 05:03:44;;;;;;;;;11.75;10.00;;;;;11.31;78.40;99211.59;5092917;27;45387;-74
2023/03/13 05:06:10;;;;;;;;;10.00;8.75;;;;;11.30;77.99;99211.66;5094154;27;45627;-74
2023/03/13 05:08:36;;;;;;;;;10.50;9.50;;;;;11.29;78.35;99212.56;5094509;27;45642;-74
2023/03/13 05:11:01;;;;;;;;;9.50;9.50;;;;;11.27;78.53;99206.50;5090155;27;45490;-74
2023/03/13 05:13:27;;;;;;;;;8.50;8.25;;;;;11.26;78.32;99195.06;5075290;27;45480;-74
2023/03/13 05:15:52;;;;;;;;;13.75;10.50;;;;;11.26;78.27;99197.72;5089733;27;45555;-74
2023/03/13 05:18:18;;;;;;;;;8.00;7.50;;;;;11.26;78.19;99202.13;5094417;27;45731;-74
2023/03/13 05:20:43;;;;;;;;;7.25;5.50;;;;;11.24;78.13;99194.28;5092389;27;45506;-74
2023/03/13 05:23:09;;;;;;;;;9.00;7.75;;;;;11.22;78.22;99182.94;5094518;27;45456;-74
2023/03/13 05:25:34;;;;;;;;;8.00;7.00;;;;;11.22;77.81;99184.72;5090591;27;45564;-74
2023/03/13 05:28:00;;;;;;;;;7.75;6.50;;;;;11.20;77.77;99182.16;5094489;27;45564;-74
2023/03/13 05:30:25;;;;;;;;;10.00;9.50;;;;;11.19;77.64;99185.72;5085968;27;45336;-74
2023/03/13 05:32:51;;;;;;;;;8.25;7.75;;;;;11.15;77.58;99177.06;5081073;27;45543;-74
2023/03/13 05:35:16;;;;;;;;;7.75;7.00;;;;;11.16;77.96;99168.22;5068858;27;45410;-73
2023/03/13 05:37:42;;;;;;;;;5.50;5.50;;;;;11.15;77.63;99168.28;5094788;27;45373;-73
2023/03/13 05:40:08;;;;;;;;;10.00;9.00;;;;;11.13;77.64;99168.34;5071806;27;45521;-74
2023/03/13 05:42:34;;;;;;;;;7.00;7.00;;;;;11.10;77.71;99164.97;5094769;27;45364;-74
2023/03/13 05:44:59;;;;;;;;;10.75;7.75;;;;;11.06;77.80;99164.22;5094075;27;45538;-74
2023/03/13 05:47:25;;;;;;;;;8.25;8.25;;;;;11.03;77.85;99164.38;5094497;27;46176;-74
2023/03/13 05:49:50;;;;;;;;;7.00;7.00;;;;;11.00;78.00;99163.66;5094051;27;45490;-74
2023/03/13 05:52:15;;;;;;;;;9.75;9.00;;;;;10.95;78.26;99158.53;5094329;27;45501;-74
2023/03/13 05:54:41;;;;;;;;;7.75;7.00;;;;;10.93;78.27;99172.72;5089196;27;45515;-74
2023/03/13 05:57:08;;;;;;;;;6.25;6.25;;;;;10.91;78.55;99169.28;5094140;27;46243;-74
2023/03/13 05:59:34;;;;;;;;;7.25;6.00;;;;;10.89;78.67;99165.88;5088210;27;45680;-74
2023/03/13 06:01:59;;;;;;;;;10.00;9.50;;;;;10.84;78.59;99159.00;5075462;27;45586;-74
2023/03/13 06:04:24;;;;;;;;;9.00;8.00;;;;;10.82;78.47;99145.00;5091630;27;45467;-73
2023/03/13 06:06:50;;;;;;;;;9.00;7.75;;;;;10.79;78.82;99136.34;5093758;27;45368;-74
2023/03/13 06:09:15;;;;;;;;;7.75;7.75;;;;;10.76;78.65;99139.97;5091211;27;45505;-74
2023/03/13 06:11:41;;;;;;;;;7.25;6.25;;;;;10.73;78.99;99145.38;5093523;27;45439;-74
2023/03/13 06:14:06;;;;;;;;;7.50;6.25;;;;;10.71;78.74;99136.69;5092270;27;45434;-74
2023/03/13 06:16:32;;;;;;;;;8.75;7.75;;;;;10.72;78.88;99146.31;5092732;27;46618;-74
2023/03/13 06:18:58;;;;;;;;;8.00;8.00;;;;;10.72;78.98;99156.00;5071040;28;45566;-73
2023/03/13 06:21:23;;;;;;;;;8.25;7.50;;;;;10.72;79.32;99146.31;5092274;27;46033;-74
2023/03/13 06:23:49;;;;;;;;;7.50;7.50;;;;;10.73;79.21;99139.22;5089270;27;45435;-74
2023/03/13 06:26:14;;;;;;;;;9.25;9.00;;;;;10.74;79.21;99135.69;5096410;27;45496;-74
2023/03/13 06:28:39;;;;;;;;;9.50;8.50;;;;;10.77;79.16;99136.41;5076722;27;45446;-74
2023/03/13 06:31:06;;;;;;;;;9.75;8.75;;;;;10.80;79.11;99138.06;5091066;27;45331;-74
2023/03/13 06:33:32;;;;;;;;;8.25;8.00;;;;;10.83;79.07;99133.53;5095057;27;45446;-74
2023/03/13 06:36:00;;;;;;;;;9.00;9.00;;;;;10.88;79.27;99128.09;5096284;27;46324;-75
2023/03/13 06:38:25;;;;;;;;;9.25;9.25;;;;;10.91;78.88;99122.66;5077623;27;45437;-75
2023/03/13 06:40:51;;;;;;;;;8.00;8.00;;;;;10.94;78.80;99126.94;5096050;27;45389;-73
2023/03/13 06:43:17;;;;;;;;;8.75;8.75;;;;;10.97;78.62;99132.09;5096675;27;45542;-74
2023/03/13 06:45:43;;;;;;;;;10.25;8.75;;;;;11.00;78.10;99132.84;5094629;27;45474;-74
2023/03/13 06:48:08;;;;;;;;;7.75;6.00;;;;;11.02;78.27;99131.00;5096211;27;45411;-74
2023/03/13 06:50:37;;;;;;;;;10.75;8.50;;;;;11.03;78.07;99123.94;5077192;27;45461;-74
2023/03/13 06:53:02;;;;;;;;;9.25;7.50;;;;;11.04;78.04;99115.13;5078012;27;45865;-74
2023/03/13 06:55:28;;;;;;;;;9.75;8.00;;;;;11.04;77.73;99117.75;5090564;27;45556;-75
2023/03/13 06:57:53;;;;;;;;;7.00;6.50;;;;;11.05;77.62;99119.47;5096169;27;45598;-74
2023/03/13 07:00:19;;;;;;;;;9.75;8.00;;;;;11.06;77.75;99122.00;5089829;27;45553;-74
2023/03/13 07:02:45;;;;;;;;;7.25;7.25;;;;;11.10;77.52;99128.03;5095967;27;45667;-74
2023/03/13 07:05:10;;;;;;;;;13.00;12.25;;;;;11.09;77.22;99121.88;5095406;27;45549;-74
2023/03/13 07:07:36;;;;;;;;;8.00;7.00;;;;;11.10;77.33;99115.69;5095648;27;45373;-74
2023/03/13 07:10:01;;;;;;;;;11.00;9.00;;;;;11.13;77.26;99098.88;5091416;27;45396;-74
2023/03/13 07:12:27;;;;;;;;;9.75;7.00;;;;;11.15;77.44;99084.69;5076994;27;45677;-74
2023/03/13 07:14:52;;;;;;;;;10.50;8.00;;;;;11.21;77.41;99101.22;5093741;27;46209;-74
2023/03/13 07:17:17;;;;;;;;;9.75;8.50;;;;;11.27;76.77;99103.56;5096271;27;45339;-74
2023/03/13 07:19:43;;;;;;;;;6.00;6.00;;;;;11.33;76.61;99124.41;5094935;27;45506;-74
2023/03/13 07:22:08;;;;;;;;;8.25;6.75;;;;;11.42;76.57;99118.72;5095803;27;45313;-74
2023/03/13 07:24:34;;;;;;;;;7.00;7.00;;;;;11.52;76.61;99118.28;5076979;27;47971;-74
2023/03/13 07:26:59;;;;;;;;;6.50;5.50;;;;;11.62;75.71;99102.03;5095376;27;45630;-75
2023/03/13 07:29:24;;;;;;;;;7.25;6.25;;;;;11.70;75.32;99091.97;5094917;27;46083;-75
2023/03/13 07:31:50;;;;;;;;;6.75;5.25;;;;;11.77;75.00;99096.06;5095484;27;45495;-75
2023/03/13 07:34:16;;;;;;;;;7.25;5.00;;;;;11.84;74.29;99094.88;5093721;27;45540;-75
2023/03/13 07:36:41;;;;;;;;;6.00;5.00;;;;;11.91;74.30;99093.66;5091051;27;45495;-75
2023/03/13 07:39:07;;;;;;;;;8.00;7.00;;;;;11.98;74.19;99097.75;5092839;27;45528;-74
2023/03/13 07:41:33;;;;;;;;;7.00;7.00;;;;;12.07;73.69;99104.38;5093012;27;45456;-74
2023/03/13 07:43:58;;;;;;;;;6.50;5.75;;;;;12.13;73.34;99099.69;5093154;27;45428;-74
2023/03/13 07:46:24;;;;;;;;;5.75;5.75;;;;;12.22;72.84;99101.91;5087676;27;45577;-74
2023/03/13 07:48:51;;;;;;;;;8.50;7.75;;;;;12.33;72.79;99097.88;5072878;28;45618;-74
2023/03/13 07:51:19;;;;;;;;;6.00;6.00;;;;;12.45;72.33;99094.66;5091051;27;45556;-74
2023/03/13 07:53:49;;;;;;;;;8.00;5.00;;;;;12.58;72.28;99085.19;5076152;27;48291;-74
2023/03/13 07:56:16;;;;;;;;;8.00;7.25;;;;;12.73;72.08;99080.97;5075928;27;45449;-76
2023/03/13 07:58:43;;;;;;;;;6.00;6.00;;;;;12.87;71.92;99068.75;5093001;27;45425;-74
2023/03/13 08:01:23;;;;;;;;;6.00;5.50;;;;;13.01;71.60;99075.13;5094005;27;45397;-74
2023/03/13 08:03:53;;;;;;;;;7.00;7.00;;;;;13.15;70.54;99072.66;5092302;27;46551;-74
2023/03/13 08:06:22;;;;;;;;;9.00;7.00;;;;;13.26;70.53;99072.97;5076214;27;45437;-74
2023/03/13 08:08:48;;;;;;;;;8.75;7.25;;;;;13.36;70.31;99073.34;5074761;27;45469;-74
2023/03/13 08:11:19;;;;;;;;;10.00;8.00;;;;;13.44;69.84;99063.19;5091396;27;45616;-74
2023/03/13 08:13:46;;;;;;;;;6.00;5.75;;;;;13.49;69.72;99059.38;5094098;27;45371;-73
2023/03/13 08:16:17;;;;;;;;;7.40;6.00;;;;;13.54;69.41;99054.72;5094906;27;45531;-72
2023/03/13 08:18:45;;;;;;;;;8.25;7.00;;;;;13.65;69.54;99055.91;5068806;27;45560;-74
2023/03/13 08:21:16;;;;;;;;;7.00;7.00;;;;;13.73;69.07;99043.97;5094818;27;45530;-74
2023/03/13 08:23:43;;;;;;;;;9.50;8.50;;;;;13.79;69.12;99043.63;5072877;27;45605;-74
2023/03/13 08:26:20;;;;;;;;;5.50;5.00;;;;;13.83;68.62;99044.31;5076384;27;45403;-75
2023/03/13 08:28:47;;;;;;;;;8.75;7.25;;;;;13.87;68.33;99028.19;5082354;27;45501;-74
2023/03/13 08:31:19;;;;;;;;;7.25;6.25;;;;;13.97;68.34;99033.81;5094333;27;45370;-74
2023/03/13 08:33:45;;;;;;;;;7.00;7.00;;;;;14.05;67.82;99036.06;5094350;27;45508;-74
2023/03/13 08:36:26;;;;;;;;;7.75;5.75;;;;;14.10;67.70;99026.88;5066381;27;45489;-74
2023/03/13 08:38:53;;;;;;;;;5.50;4.25;;;;;14.17;67.64;99022.97;5094101;27;45405;-72
2023/03/13 08:41:22;;;;;;;;;5.50;5.50;;;;;14.21;67.24;99021.84;5089351;27;45407;-72
2023/03/13 08:43:47;;;;;;;;;5.75;5.75;;;;;14.27;66.43;99028.59;5090908;27;45576;-75
2023/03/13 08:46:14;;;;;;;;;7.00;5.25;;;;;14.35;67.30;99017.56;5089377;27;45402;-75
2023/03/13 08:48:40;;;;;;;;;5.25;5.25;;;;;14.44;66.51;99001.13;5069198;27;45708;-74
2023/03/13 08:51:06;;;;;;;;;5.00;4.75;;;;;14.49;66.03;98999.09;5076432;27;45634;-72
2023/03/13 08:53:33;;;;;;;;;8.75;7.75;;;;;14.53;66.00;98996.19;5092974;27;45561;-75
2023/03/13 08:55:59;;;;;;;;;6.40;6.40;;;;;14.56;65.59;98981.88;5086902;27;45429;-73
2023/03/13 08:58:25;;;;;;;;;8.00;7.00;;;;;14.58;66.14;98964.91;5092989;27;45456;-73
2023/03/13 09:00:51;;;;;;;;;9.75;8.00;;;;;14.58;65.85;98954.28;5088341;27;45598;-73
2023/03/13 09:03:17;;;;;;;;;8.25;8.25;;;;;14.60;65.77;98959.50;5092953;27;45499;-73
2023/03/13 09:05:47;;;;;;;;;8.50;8.50;;;;;14.61;65.97;98951.47;5088817;27;45382;-74
2023/03/13 09:08:14;;;;;;;;;8.00;8.00;;;;;14.61;66.05;98935.53;5075462;27;45388;-73
2023/03/13 09:10:41;;;;;;;;;9.75;9.00;;;;;14.65;66.18;98928.25;5088347;27;45425;-73
2023/03/13 09:13:07;;;;;;;;;8.25;6.00;;;;;14.69;66.05;98920.97;5093492;27;46257;-74
2023/03/13 09:15:32;;;;;;;;;7.75;6.25;;;;;14.70;66.09;98922.69;5091939;27;45431;-73
2023/03/13 09:17:57;;;;;;;;;8.50;7.50;;;;;14.76;65.96;98924.94;5094444;27;45391;-73
2023/03/13 09:20:23;;;;;;;;;7.00;6.75;;;;;14.80;66.07;98914.06;5091630;27;45539;-78
2023/03/13 09:22:48;;;;;;;;;11.00;9.00;;;;;14.80;65.63;98892.84;5094268;27;45523;-78
2023/03/13 09:25:14;;;;;;;;;6.50;6.50;;;;;14.85;65.99;98881.94;5076357;27;45519;-77
2023/03/13 09:27:48;;;;;;;;;5.00;5.00;;;;;14.91;65.40;98879.75;5094962;27;45464;-78
2023/03/13 09:30:14;;;;;;;;;4.25;4.25;;;;;14.95;65.15;98870.66;5094141;27;45546;-78
2023/03/13 09:32:39;;;;;;;;;6.00;5.25;;;;;15.01;65.15;98864.13;5094065;27;46055;-78
2023/03/13 09:35:05;;;;;;;;;8.25;5.00;;;;;15.07;64.64;98868.22;5088560;27;45456;-79
2023/03/13 09:37:30;;;;;;;;;5.75;5.75;;;;;15.12;65.02;98868.75;5095201;27;45495;-79
2023/03/13 09:39:58;;;;;;;;;6.50;5.50;;;;;15.16;64.47;98867.63;5094727;27;45400;-79
2023/03/13 09:42:39;;;;;;;;;5.75;5.50;;;;;15.16;64.37;98855.19;5076266;27;45462;-79
2023/03/13 09:45:11;;;;;;;;;6.20;5.60;;;;;15.16;63.90;98857.00;5081619;27;45496;-79
2023/03/13 09:48:00;;;;;;;;;6.00;6.00;;;;;15.18;64.37;98853.31;5094844;27;45433;-79
2023/03/13 09:50:32;;;;;;;;;6.75;6.00;;;;;15.21;64.33;98831.88;5088794;27;45600;-79
2023/03/13 09:53:05;;;;;;;;;6.50;6.50;;;;;15.26;63.94;98835.06;5094025;27;46711;-79
2023/03/13 09:55:36;;;;;;;;;7.00;6.40;;;;;15.35;64.07;98837.16;5090026;27;45449;-79
2023/03/13 09:58:17;;;;;;;;;6.50;5.75;;;;;15.51;64.32;98825.53;5093467;27;45506;-79
2023/03/13 10:00:52;;;;;;;;;6.25;5.50;;;;;15.65;63.80;98822.84;5094043;27;45400;-78
2023/03/13 10:03:57;;;;;;;;;14.25;10.75;;;;;15.76;63.77;98812.38;5092208;27;46238;-78
2023/03/13 10:06:37;;;;;;;;;5.00;5.00;;;;;15.86;63.64;98802.00;5084177;27;45534;-80
2023/03/13 10:09:15;;;;;;;;;7.00;5.50;;;;;15.90;62.55;98784.88;5089509;27;45530;-80
2023/03/13 10:11:50;;;;;;;;;7.00;6.50;;;;;15.95;61.84;98778.28;5094429;27;45590;-79
2023/03/13 10:14:50;;;;;;;;;4.00;3.75;;;;;15.98;61.18;98763.94;5094675;27;46835;-79
2023/03/13 10:17:29;;;;;;;;;3.60;3.00;;;;;15.98;60.38;98766.59;5064636;27;45648;-80
2023/03/13 10:20:07;;;;;;;;;3.80;3.00;;;;;15.99;60.41;98761.19;5097679;27;45436;-79
2023/03/13 10:22:33;;;;;;;;;2.50;2.50;;;;;16.04;59.96;98759.06;5095441;27;45698;-80
2023/03/13 10:25:24;;;;;;;;;3.50;3.50;;;;;16.16;59.76;98760.03;5097590;27;46257;-82
2023/03/13 10:27:57;;;;;;;;;3.20;3.20;;;;;16.22;59.97;98743.66;5091399;27;45432;-82
2023/03/13 10:30:31;;;;;;;;;3.60;3.60;;;;;16.32;59.34;98751.84;5076797;27;45695;-81
2023/03/13 10:33:15;;;;;;;;;5.25;3.25;;;;;16.42;59.23;98744.94;5075711;27;45554;-82
2023/03/13 10:35:41;;;;;;;;;3.00;2.00;;;;;16.55;58.67;98745.78;5094859;27;46234;-82
2023/03/13 10:38:21;;;;;;;;;3.80;2.60;;;;;16.68;58.60;98732.47;5091481;27;45653;-82
2023/03/13 10:40:57;;;;;;;;;4.20;2.80;;;;;16.87;57.69;98740.00;5097574;27;45515;-82
2023/03/13 10:43:24;;;;;;;;;2.00;1.00;;;;;17.03;57.30;98733.47;5096117;27;45432;-82
2023/03/13 10:45:51;;;;;;;;;4.00;3.00;;;;;17.19;57.64;98721.69;5096005;27;45506;-82
2023/03/13 10:48:25;;;;;;;;;2.60;2.00;;;;;17.38;57.53;98716.69;5090721;27;45464;-82
2023/03/13 10:50:56;;;;;;;;;2.60;2.60;;;;;17.56;56.79;98712.66;5091647;27;45405;-82
2023/03/13 10:53:28;;;;;;;;;2.60;2.60;;;;;17.74;56.33;98694.47;5071282;27;45400;-83
2023/03/13 10:56:16;;;;;;;;;2.20;2.20;;;;;17.94;55.88;98688.44;5078126;27;47769;-82
2023/03/13 10:58:44;;;;;;;;;5.80;3.80;;;;;18.12;55.91;98687.00;5078197;27;45517;-82
2023/03/13 11:01:24;;;;;;;;;4.00;4.00;;;;;18.33;55.32;98683.63;5097506;27;45317;-82
2023/03/13 11:03:54;;;;;;;;;3.40;3.00;;;;;18.51;54.52;98679.50;5084979;27;45549;-80
2023/03/13 11:06:23;;;;;;;;;2.60;2.60;;;;;18.70;54.96;98673.59;5097151;27;45370;-81
2023/03/13 11:08:48;;;;;;;;;3.20;2.00;;;;;18.90;54.10;98666.63;5101184;27;45302;-82
2023/03/13 11:11:19;;;;;;;;;4.00;3.00;;;;;19.10;53.77;98656.00;5096038;27;45323;-81
2023/03/13 11:13:44;;;;;;;;;4.40;3.00;;;;;19.27;53.87;98646.59;5075642;27;45520;-81
2023/03/13 11:16:19;;;;;;;;;3.00;2.50;;;;;19.42;53.33;98641.81;5086111;27;46504;-81
2023/03/13 11:18:56;;;;;;;;;2.40;2.20;;;;;19.59;52.33;98643.09;5075753;27;45496;-82
2023/03/13 11:22:15;;;;;;;;;2.60;2.00;;;;;19.65;50.55;98626.50;5096874;27;45477;-82
2023/03/13 11:24:43;;;;;;;;;3.40;2.00;;;;;19.60;48.87;98624.25;5066807;27;45373;-82
2023/03/13 11:27:30;;;;;;;;;3.00;2.00;;;;;19.57;48.83;98629.00;5089957;27;46832;-81
2023/03/13 11:30:17;;;;;;;;;0.40;0.40;;;;;19.46;49.41;98624.50;5091198;27;45408;-80
2023/03/13 11:33:09;;;;;;;;;2.00;2.00;;;;;19.47;50.36;98612.84;5095079;27;45355;-80
2023/03/13 11:35:43;;;;;;;;;1.80;1.00;;;;;19.55;48.77;98594.38;5093006;27;45491;-81